createdAt,value
2018-07-04T00:00:45.324Z,324.90
2018-07-04T00:01:45.416Z,334.20
2018-07-04T00:02:45.437Z,314.50
2018-07-04T00:03:45.457Z,332.30
2018-07-04T00:04:47.014Z,337.20
2018-07-04T00:05:45.524Z,328.70
2018-07-04T00:06:45.650Z,310.20
2018-07-04T00:07:45.627Z,315.70
2018-07-04T00:08:45.667Z,333.50
2018-07-04T00:09:45.729Z,322.20
2018-07-04T00:10:45.783Z,323.80
2018-07-04T00:11:45.808Z,323.90
2018-07-04T00:12:45.882Z,323.90
2018-07-04T00:13:45.905Z,317.40
2018-07-04T00:14:45.923Z,305.20
2018-07-04T00:15:45.989Z,320.70
2018-07-04T00:16:46.004Z,311.90
2018-07-04T00:17:46.080Z,310.40
2018-07-04T00:18:46.097Z,301.40
2018-07-04T00:19:46.139Z,333.60
2018-07-04T00:20:46.216Z,332.30
2018-07-04T00:21:46.216Z,344.40
2018-07-04T00:22:46.318Z,348.20
2018-07-04T00:23:46.351Z,334.10
2018-07-04T00:24:46.364Z,321.30
2018-07-04T00:25:46.483Z,326.30
2018-07-04T00:26:46.455Z,314.60
2018-07-04T00:27:46.475Z,386.50
2018-07-04T00:28:46.562Z,312.00
2018-07-04T00:29:46.562Z,349.90
2018-07-04T00:30:46.622Z,307.80
2018-07-04T00:31:46.682Z,349.60
2018-07-04T00:32:46.730Z,478.40
2018-07-04T00:33:46.766Z,320.10
2018-07-04T00:34:46.799Z,336.20
2018-07-04T00:35:46.828Z,342.70
2018-07-04T00:36:46.900Z,308.00
2018-07-04T00:37:46.962Z,318.10
2018-07-04T00:38:46.971Z,312.20
2018-07-04T00:39:47.021Z,308.00
2018-07-04T00:40:47.395Z,310.10
2018-07-04T00:41:47.108Z,340.60
2018-07-04T00:42:47.145Z,322.20
2018-07-04T00:43:47.168Z,320.50
2018-07-04T00:44:47.250Z,329.10
2018-07-04T00:45:47.293Z,331.80
2018-07-04T00:46:47.315Z,322.10
2018-07-04T00:47:47.365Z,334.00
2018-07-04T00:48:47.416Z,316.80
2018-07-04T00:49:47.441Z,316.60
2018-07-04T00:50:47.536Z,339.20
2018-07-04T00:51:47.578Z,342.20
2018-07-04T00:52:47.586Z,328.30
2018-07-04T00:53:47.600Z,336.60
2018-07-04T00:54:47.649Z,323.30
2018-07-04T00:55:47.713Z,327.30
2018-07-04T00:56:47.785Z,337.40
2018-07-04T00:57:47.831Z,313.40
2018-07-04T00:58:47.827Z,302.20
2018-07-04T00:59:47.883Z,304.20
2018-07-04T01:00:47.929Z,300.60
2018-07-04T01:01:47.984Z,326.70
2018-07-04T01:02:47.988Z,319.00
2018-07-04T01:03:48.100Z,322.00
2018-07-04T01:04:48.128Z,320.80
2018-07-04T01:05:48.130Z,366.30
2018-07-04T01:06:48.217Z,296.60
2018-07-04T01:07:48.231Z,321.10
2018-07-04T01:08:48.265Z,324.30
2018-07-04T01:09:48.327Z,320.10
2018-07-04T01:10:48.421Z,327.30
2018-07-04T01:11:48.397Z,322.20
2018-07-04T01:12:48.455Z,312.40
2018-07-04T01:13:48.504Z,303.50
2018-07-04T01:14:48.545Z,302.10
2018-07-04T01:15:48.562Z,305.10
2018-07-04T01:16:48.611Z,322.20
2018-07-04T01:17:48.648Z,298.80
2018-07-04T01:18:48.704Z,310.50
2018-07-04T01:19:48.760Z,299.90
2018-07-04T01:20:48.773Z,287.50
2018-07-04T01:21:48.851Z,310.40
2018-07-04T01:22:48.892Z,286.60
2018-07-04T01:23:48.935Z,306.20
2018-07-04T01:24:48.972Z,282.90
2018-07-04T01:25:49.014Z,293.90
2018-07-04T01:26:49.037Z,290.00
2018-07-04T01:27:49.087Z,306.70
2018-07-04T01:28:49.129Z,306.70
2018-07-04T01:29:49.198Z,297.10
2018-07-04T01:30:49.221Z,296.00
2018-07-04T01:31:49.266Z,295.30
2018-07-04T01:32:49.324Z,303.60
2018-07-04T01:33:49.351Z,298.40
2018-07-04T01:34:49.631Z,292.60
2018-07-04T01:35:49.499Z,291.00
2018-07-04T01:36:49.506Z,300.20
2018-07-04T01:37:49.580Z,298.30
2018-07-04T01:38:49.579Z,290.70
2018-07-04T01:39:49.621Z,301.30
2018-07-04T01:40:49.642Z,293.40
2018-07-04T01:41:49.733Z,306.20
2018-07-04T01:42:49.752Z,289.30
2018-07-04T01:43:49.785Z,308.40
2018-07-04T01:44:49.833Z,292.90
2018-07-04T01:45:49.921Z,306.30
2018-07-04T01:46:49.961Z,297.10
2018-07-04T01:47:49.962Z,306.30
2018-07-04T01:48:49.990Z,331.40
2018-07-04T01:49:50.025Z,299.50
2018-07-04T01:50:50.146Z,335.60
2018-07-04T01:51:50.141Z,299.30
2018-07-04T01:52:50.212Z,295.80
2018-07-04T01:53:50.214Z,299.70
2018-07-04T01:54:50.278Z,293.10
2018-07-04T01:55:50.307Z,312.00
2018-07-04T01:56:50.604Z,345.00
2018-07-04T01:57:50.391Z,298.50
2018-07-04T01:58:50.426Z,303.50
2018-07-04T01:59:50.489Z,292.80
2018-07-04T02:00:50.498Z,305.20
2018-07-04T02:01:50.555Z,301.80
2018-07-04T02:02:50.592Z,307.70
2018-07-04T02:03:50.655Z,299.80
2018-07-04T02:04:50.699Z,292.20
2018-07-04T02:05:50.736Z,292.70
2018-07-04T02:06:50.771Z,307.60
2018-07-04T02:07:50.850Z,306.40
2018-07-04T02:08:50.878Z,312.30
2018-07-04T02:09:50.921Z,296.20
2018-07-04T02:10:50.998Z,304.80
2018-07-04T02:11:50.983Z,291.20
2018-07-04T02:12:51.031Z,308.30
2018-07-04T02:13:51.083Z,303.30
2018-07-04T02:14:51.115Z,304.30
2018-07-04T02:15:51.165Z,322.30
2018-07-04T02:16:51.201Z,296.10
2018-07-04T02:17:51.258Z,314.10
2018-07-04T02:18:51.282Z,303.50
2018-07-04T02:19:51.536Z,292.40
2018-07-04T02:20:51.423Z,365.90
2018-07-04T02:21:51.455Z,307.80
2018-07-04T02:22:51.485Z,274.90
2018-07-04T02:23:51.547Z,284.10
2018-07-04T02:24:51.576Z,301.80
2018-07-04T02:25:51.864Z,285.70
2018-07-04T02:26:51.672Z,285.60
2018-07-04T02:27:51.703Z,288.30
2018-07-04T02:28:51.730Z,298.70
2018-07-04T02:29:51.789Z,293.40
2018-07-04T02:30:51.813Z,299.10
2018-07-04T02:31:51.869Z,281.90
2018-07-04T02:32:51.902Z,293.50
2018-07-04T02:33:51.953Z,293.70
2018-07-04T02:34:51.989Z,294.40
2018-07-04T02:35:52.013Z,298.50
2018-07-04T02:36:52.079Z,287.00
2018-07-04T02:37:52.103Z,296.90
2018-07-04T02:38:52.163Z,281.20
2018-07-04T02:39:52.219Z,267.90
2018-07-04T02:40:52.311Z,299.30
2018-07-04T02:41:52.314Z,288.60
2018-07-04T02:42:52.548Z,298.90
2018-07-04T02:43:52.390Z,303.40
2018-07-04T02:44:52.432Z,297.50
2018-07-04T02:45:52.475Z,312.80
2018-07-04T02:46:52.516Z,301.70
2018-07-04T02:47:52.552Z,282.70
2018-07-04T02:48:52.582Z,307.70
2018-07-04T02:49:52.632Z,301.30
2018-07-04T02:50:52.704Z,285.20
2018-07-04T02:51:52.738Z,286.70
2018-07-04T02:52:52.774Z,292.00
2018-07-04T02:53:52.994Z,288.50
2018-07-04T02:54:52.861Z,290.30
2018-07-04T02:55:52.885Z,283.30
2018-07-04T02:56:52.929Z,291.20
2018-07-04T02:57:52.972Z,294.20
2018-07-04T02:58:53.008Z,285.90
2018-07-04T02:59:53.072Z,281.00
2018-07-04T03:00:53.116Z,286.90
2018-07-04T03:01:53.149Z,293.30
2018-07-04T03:02:53.224Z,333.30
2018-07-04T03:03:53.241Z,307.90
2018-07-04T03:04:53.343Z,273.10
2018-07-04T03:05:53.326Z,278.10
2018-07-04T03:06:53.358Z,279.90
2018-07-04T03:07:53.413Z,274.70
2018-07-04T03:08:53.491Z,294.10
2018-07-04T03:09:53.502Z,285.10
2018-07-04T03:10:53.532Z,294.60
2018-07-04T03:11:53.597Z,300.30
2018-07-04T03:12:53.601Z,403.70
2018-07-04T03:13:53.703Z,281.10
2018-07-04T03:14:53.908Z,264.60
2018-07-04T03:15:53.778Z,277.00
2018-07-04T03:16:53.809Z,271.00
2018-07-04T03:17:53.849Z,272.90
2018-07-04T03:18:53.902Z,278.40
2018-07-04T03:19:53.918Z,306.20
2018-07-04T03:20:53.969Z,284.00
2018-07-04T03:21:54.009Z,285.10
2018-07-04T03:22:54.062Z,285.90
2018-07-04T03:23:54.084Z,268.80
2018-07-04T03:24:54.151Z,262.20
2018-07-04T03:25:54.191Z,292.50
2018-07-04T03:26:54.237Z,287.40
2018-07-04T03:27:54.255Z,324.40
2018-07-04T03:28:54.313Z,283.90
2018-07-04T03:29:54.362Z,284.10
2018-07-04T03:30:54.391Z,299.10
2018-07-04T03:31:54.461Z,272.70
2018-07-04T03:32:54.532Z,290.20
2018-07-04T03:33:54.525Z,271.60
2018-07-04T03:34:54.570Z,296.40
2018-07-04T03:35:54.626Z,288.30
2018-07-04T03:36:54.678Z,286.20
2018-07-04T03:37:54.728Z,292.20
2018-07-04T03:38:54.761Z,296.40
2018-07-04T03:39:54.773Z,304.10
2018-07-04T03:40:54.852Z,299.60
2018-07-04T03:41:55.061Z,276.30
2018-07-04T03:42:54.979Z,293.30
2018-07-04T03:43:54.975Z,292.70
2018-07-04T03:44:55.006Z,289.60
2018-07-04T03:45:55.033Z,300.70
2018-07-04T03:46:55.101Z,285.60
2018-07-04T03:47:55.152Z,290.30
2018-07-04T03:48:55.193Z,296.70
2018-07-04T03:49:55.271Z,284.70
2018-07-04T03:50:55.280Z,293.40
2018-07-04T03:51:55.314Z,300.40
2018-07-04T03:52:55.355Z,285.60
2018-07-04T03:53:55.450Z,295.70
2018-07-04T03:54:55.429Z,293.50
2018-07-04T03:55:55.506Z,295.10
2018-07-04T03:56:55.530Z,300.60
2018-07-04T03:57:55.572Z,309.40
2018-07-04T03:58:55.614Z,298.50
2018-07-04T03:59:55.642Z,298.50
2018-07-04T04:00:55.747Z,293.50
2018-07-04T04:01:55.749Z,285.40
2018-07-04T04:02:55.845Z,299.00
2018-07-04T04:03:55.844Z,300.90
2018-07-04T04:04:55.888Z,300.70
2018-07-04T04:05:55.913Z,311.90
2018-07-04T04:06:55.947Z,300.70
2018-07-04T04:07:55.987Z,305.40
2018-07-04T04:08:56.045Z,290.50
2018-07-04T04:09:56.094Z,305.50
2018-07-04T04:10:56.126Z,301.20
2018-07-04T04:11:56.171Z,311.50
2018-07-04T04:12:56.222Z,306.90
2018-07-04T04:13:56.279Z,302.80
2018-07-04T04:14:56.308Z,308.60
2018-07-04T04:15:56.383Z,328.00
2018-07-04T04:16:56.608Z,306.90
2018-07-04T04:17:56.432Z,317.20
2018-07-04T04:18:56.489Z,305.00
2018-07-04T04:19:56.570Z,313.70
2018-07-04T04:20:56.580Z,322.20
2018-07-04T04:21:56.615Z,314.10
2018-07-04T04:22:56.643Z,319.40
2018-07-04T04:23:56.698Z,305.70
2018-07-04T04:24:56.737Z,320.20
2018-07-04T04:25:56.789Z,309.40
2018-07-04T04:26:56.879Z,309.70
2018-07-04T04:27:57.077Z,303.90
2018-07-04T04:28:56.909Z,304.30
2018-07-04T04:29:56.970Z,414.20
2018-07-04T04:30:56.991Z,311.90
2018-07-04T04:31:57.021Z,322.60
2018-07-04T04:32:57.102Z,302.20
2018-07-04T04:33:57.246Z,321.80
2018-07-04T04:34:57.182Z,306.20
2018-07-04T04:35:57.227Z,311.90
2018-07-04T04:36:57.250Z,297.10
2018-07-04T04:37:57.314Z,315.70
2018-07-04T04:38:57.547Z,301.10
2018-07-04T04:39:57.374Z,292.80
2018-07-04T04:40:57.450Z,290.90
2018-07-04T04:41:57.484Z,293.90
2018-07-04T04:42:57.522Z,303.00
2018-07-04T04:43:57.573Z,289.90
2018-07-04T04:44:57.599Z,289.90
2018-07-04T04:45:57.651Z,288.40
2018-07-04T04:46:57.692Z,283.20
2018-07-04T04:47:57.758Z,282.20
2018-07-04T04:48:57.786Z,290.10
2018-07-04T04:49:57.824Z,288.00
2018-07-04T04:50:57.858Z,352.50
2018-07-04T04:51:57.907Z,291.50
2018-07-04T04:52:57.939Z,297.60
2018-07-04T04:53:57.979Z,325.10
2018-07-04T04:54:58.048Z,442.30
2018-07-04T04:55:58.073Z,287.60
2018-07-04T04:56:58.172Z,288.50
2018-07-04T04:57:58.162Z,282.60
2018-07-04T04:58:58.209Z,293.10
2018-07-04T04:59:58.273Z,273.30
2018-07-04T05:00:58.319Z,288.50
2018-07-04T05:01:58.345Z,287.70
2018-07-04T05:02:58.378Z,281.60
2018-07-04T05:03:58.427Z,283.70
2018-07-04T05:04:58.459Z,279.10
2018-07-04T05:05:58.517Z,274.80
2018-07-04T05:06:58.569Z,285.90
2018-07-04T05:07:58.596Z,295.60
2018-07-04T05:08:58.640Z,291.80
2018-07-04T05:09:58.674Z,279.00
2018-07-04T05:10:58.738Z,286.50
2018-07-04T05:11:58.883Z,296.20
2018-07-04T05:12:58.792Z,289.10
2018-07-04T05:13:58.853Z,285.10
2018-07-04T05:14:58.900Z,265.10
2018-07-04T05:15:58.939Z,268.20
2018-07-04T05:16:59.005Z,264.60
2018-07-04T05:17:59.037Z,264.40
2018-07-04T05:18:59.089Z,268.40
2018-07-04T05:19:59.104Z,269.50
2018-07-04T05:20:59.171Z,262.40
2018-07-04T05:21:59.259Z,255.30
2018-07-04T05:22:59.253Z,252.30
2018-07-04T05:23:59.271Z,242.70
2018-07-04T05:24:59.333Z,241.90
2018-07-04T05:25:59.377Z,230.10
2018-07-04T05:26:59.534Z,229.60
2018-07-04T05:27:59.478Z,235.80
2018-07-04T05:28:59.538Z,229.70
2018-07-04T05:29:59.581Z,241.80
2018-07-04T05:30:59.619Z,255.80
2018-07-04T05:31:59.646Z,231.00
2018-07-04T05:32:59.689Z,240.10
2018-07-04T05:33:59.713Z,243.60
2018-07-04T05:34:59.799Z,234.90
2018-07-04T05:35:59.825Z,242.10
2018-07-04T05:36:59.878Z,251.80
2018-07-04T05:37:59.892Z,238.20
2018-07-04T05:38:59.968Z,240.20
2018-07-04T05:39:59.986Z,239.30
2018-07-04T05:41:00.028Z,246.00
2018-07-04T05:42:00.283Z,255.20
2018-07-04T05:43:00.125Z,246.80
2018-07-04T05:44:00.161Z,246.90
2018-07-04T05:45:00.226Z,241.70
2018-07-04T05:46:00.264Z,242.00
2018-07-04T05:47:00.291Z,239.10
2018-07-04T05:48:00.381Z,214.70
2018-07-04T05:49:00.376Z,242.10
2018-07-04T05:50:00.446Z,232.90
2018-07-04T05:51:00.477Z,236.70
2018-07-04T05:52:00.533Z,234.90
2018-07-04T05:53:00.544Z,244.00
2018-07-04T05:54:00.816Z,224.40
2018-07-04T05:55:00.655Z,303.90
2018-07-04T05:56:00.682Z,240.00
2018-07-04T05:57:00.747Z,223.00
2018-07-04T05:58:00.766Z,208.50
2018-07-04T05:59:00.826Z,352.60
2018-07-04T06:00:00.902Z,318.10
2018-07-04T06:01:00.918Z,463.20
2018-07-04T06:02:00.952Z,257.70
2018-07-04T06:03:00.990Z,251.90
2018-07-04T06:04:01.032Z,255.20
2018-07-04T06:05:01.086Z,255.30
2018-07-04T06:06:01.305Z,263.80
2018-07-04T06:07:01.158Z,251.60
2018-07-04T06:08:01.206Z,248.70
2018-07-04T06:09:01.292Z,251.70
2018-07-04T06:10:01.283Z,256.80
2018-07-04T06:11:01.317Z,254.00
2018-07-04T06:12:01.400Z,269.30
2018-07-04T06:13:01.444Z,250.10
2018-07-04T06:14:01.471Z,262.30
2018-07-04T06:15:01.561Z,273.10
2018-07-04T06:16:01.548Z,361.50
2018-07-04T06:17:01.618Z,282.30
2018-07-04T06:18:01.639Z,278.50
2018-07-04T06:19:01.680Z,271.80
2018-07-04T06:20:01.733Z,284.20
2018-07-04T06:21:01.823Z,292.10
2018-07-04T06:22:02.006Z,272.50
2018-07-04T06:23:01.852Z,275.10
2018-07-04T06:24:01.906Z,266.10
2018-07-04T06:25:01.950Z,267.70
2018-07-04T06:26:01.993Z,298.70
2018-07-04T06:27:02.025Z,460.00
2018-07-04T06:28:02.083Z,322.20
2018-07-04T06:29:02.101Z,380.10
2018-07-04T06:30:02.153Z,277.10
2018-07-04T06:31:02.240Z,359.70
2018-07-04T06:32:02.223Z,278.80
2018-07-04T06:33:02.298Z,279.60
2018-07-04T06:34:02.316Z,267.90
2018-07-04T06:35:02.362Z,282.80
2018-07-04T06:36:02.386Z,275.00
2018-07-04T06:37:02.473Z,278.50
2018-07-04T06:38:02.713Z,267.30
2018-07-04T06:39:02.638Z,268.80
2018-07-04T06:40:02.584Z,262.60
2018-07-04T06:41:02.612Z,258.50
2018-07-04T06:42:02.680Z,247.80
2018-07-04T06:43:02.702Z,253.30
2018-07-04T06:44:02.769Z,294.30
2018-07-04T06:45:02.811Z,408.10
2018-07-04T06:46:02.853Z,369.10
2018-07-04T06:47:02.929Z,222.10
2018-07-04T06:48:02.916Z,283.10
2018-07-04T06:49:03.230Z,256.30
2018-07-04T06:50:03.010Z,254.50
2018-07-04T06:51:03.035Z,254.70
2018-07-04T06:52:03.104Z,252.20
2018-07-04T06:53:03.165Z,246.90
2018-07-04T06:54:03.185Z,250.00
2018-07-04T06:55:03.234Z,229.70
2018-07-04T06:56:03.311Z,223.30
2018-07-04T06:57:03.314Z,237.60
2018-07-04T06:58:03.348Z,258.50
2018-07-04T06:59:03.415Z,220.80
2018-07-04T07:00:03.710Z,212.00
2018-07-04T07:01:03.495Z,220.70
2018-07-04T07:02:03.535Z,211.80
2018-07-04T07:03:03.572Z,199.30
2018-07-04T07:04:03.608Z,248.70
2018-07-04T07:05:03.680Z,206.20
2018-07-04T07:06:03.689Z,249.80
2018-07-04T07:07:03.730Z,209.40
2018-07-04T07:08:03.849Z,218.80
2018-07-04T07:09:03.822Z,194.40
2018-07-04T07:10:03.878Z,180.80
2018-07-04T07:11:03.965Z,190.50
2018-07-04T07:12:04.238Z,224.50
2018-07-04T07:13:03.989Z,209.30
2018-07-04T07:14:04.041Z,185.20
2018-07-04T07:15:04.079Z,293.70
2018-07-04T07:16:04.178Z,225.80
2018-07-04T07:17:04.159Z,166.50
2018-07-04T07:18:04.213Z,210.70
2018-07-04T07:19:04.248Z,207.80
2018-07-04T07:20:04.309Z,209.30
2018-07-04T07:21:04.410Z,197.40
2018-07-04T07:22:04.432Z,264.10
2018-07-04T07:23:04.613Z,199.40
2018-07-04T07:24:04.469Z,206.20
2018-07-04T07:25:04.507Z,209.50
2018-07-04T07:26:04.554Z,182.90
2018-07-04T07:27:04.611Z,191.70
2018-07-04T07:28:04.631Z,192.20
2018-07-04T07:29:04.687Z,188.60
2018-07-04T07:30:04.723Z,175.80
2018-07-04T07:31:04.753Z,194.90
2018-07-04T07:32:04.862Z,181.90
2018-07-04T07:33:04.887Z,220.20
2018-07-04T07:34:05.163Z,197.80
2018-07-04T07:35:04.953Z,195.50
2018-07-04T07:36:05.010Z,221.10
2018-07-04T07:37:05.041Z,193.10
2018-07-04T07:38:05.080Z,205.30
2018-07-04T07:39:05.134Z,195.30
2018-07-04T07:40:05.141Z,206.20
2018-07-04T07:41:05.228Z,207.90
2018-07-04T07:42:05.307Z,186.10
2018-07-04T07:43:05.286Z,186.30
2018-07-04T07:44:05.337Z,223.40
2018-07-04T07:45:05.392Z,176.20
2018-07-04T07:46:05.667Z,189.00
2018-07-04T07:47:05.468Z,191.60
2018-07-04T07:48:05.492Z,211.80
2018-07-04T07:49:05.555Z,197.30
2018-07-04T07:50:05.586Z,193.50
2018-07-04T07:51:05.632Z,202.90
2018-07-04T07:52:05.655Z,204.20
2018-07-04T07:53:05.721Z,204.50
2018-07-04T07:54:05.829Z,198.50
2018-07-04T07:55:05.799Z,190.20
2018-07-04T07:56:05.838Z,184.50
2018-07-04T07:57:05.901Z,184.00
2018-07-04T07:58:06.152Z,188.40
2018-07-04T07:59:05.994Z,198.70
2018-07-04T08:00:06.033Z,199.50
2018-07-04T08:01:06.093Z,203.90
2018-07-04T08:02:06.137Z,225.20
2018-07-04T08:03:06.145Z,217.30
2018-07-04T08:04:06.207Z,214.20
2018-07-04T08:05:06.210Z,207.20
2018-07-04T08:06:06.283Z,219.20
2018-07-04T08:07:06.321Z,212.70
2018-07-04T08:08:06.422Z,238.30
2018-07-04T08:09:06.593Z,227.10
2018-07-04T08:10:06.466Z,225.20
2018-07-04T08:11:06.492Z,221.90
2018-07-04T08:12:06.570Z,267.20
2018-07-04T08:13:06.609Z,242.80
2018-07-04T08:14:06.612Z,234.00
2018-07-04T08:15:06.683Z,227.40
2018-07-04T08:16:06.699Z,240.70
2018-07-04T08:17:06.741Z,250.00
2018-07-04T08:18:06.802Z,257.40
2018-07-04T08:19:06.842Z,238.10
2018-07-04T08:20:07.097Z,252.40
2018-07-04T08:21:06.913Z,244.00
2018-07-04T08:22:06.977Z,236.90
2018-07-04T08:23:07.017Z,242.60
2018-07-04T08:24:07.072Z,254.80
2018-07-04T08:25:07.088Z,246.70
2018-07-04T08:26:07.132Z,267.70
2018-07-04T08:27:07.202Z,263.00
2018-07-04T08:28:07.248Z,260.20
2018-07-04T08:29:07.281Z,244.40
2018-07-04T08:30:07.363Z,255.70
2018-07-04T08:31:07.376Z,270.90
2018-07-04T08:32:07.398Z,263.30
2018-07-04T08:33:07.494Z,257.90
2018-07-04T08:34:07.478Z,264.50
2018-07-04T08:35:07.530Z,264.10
2018-07-04T08:36:07.830Z,251.10
2018-07-04T08:37:07.617Z,245.80
2018-07-04T08:38:07.654Z,262.70
2018-07-04T08:39:07.719Z,267.00
2018-07-04T08:40:07.741Z,271.60
2018-07-04T08:41:07.788Z,256.40
2018-07-04T08:42:07.842Z,265.00
2018-07-04T08:43:07.886Z,258.10
2018-07-04T08:44:07.943Z,251.00
2018-07-04T08:45:07.963Z,254.70
2018-07-04T08:46:07.999Z,273.50
2018-07-04T08:47:08.050Z,286.20
2018-07-04T08:48:08.296Z,253.30
2018-07-04T08:49:08.150Z,257.10
2018-07-04T08:50:08.185Z,257.10
2018-07-04T08:51:08.232Z,261.40
2018-07-04T08:52:08.289Z,257.00
2018-07-04T08:53:08.316Z,259.20
2018-07-04T08:54:08.348Z,269.00
2018-07-04T08:55:08.387Z,255.00
2018-07-04T08:56:08.491Z,268.10
2018-07-04T08:57:08.521Z,253.50
2018-07-04T08:58:08.518Z,259.00
2018-07-04T08:59:08.579Z,259.30
2018-07-04T09:00:08.814Z,261.90
2018-07-04T09:01:08.665Z,261.80
2018-07-04T09:02:08.689Z,262.50
2018-07-04T09:03:08.759Z,271.00
2018-07-04T09:04:08.785Z,272.30
2018-07-04T09:05:08.839Z,260.40
2018-07-04T09:06:08.897Z,270.10
2018-07-04T09:07:08.943Z,265.10
2018-07-04T09:08:08.973Z,264.00
2018-07-04T09:09:09.017Z,260.40
2018-07-04T09:10:09.048Z,262.70
2018-07-04T09:11:09.321Z,259.90
2018-07-04T09:12:09.135Z,265.00
2018-07-04T09:13:09.184Z,270.00
2018-07-04T09:14:09.278Z,283.10
2018-07-04T09:15:09.288Z,281.60
2018-07-04T09:16:09.314Z,253.10
2018-07-04T09:17:09.401Z,262.30
2018-07-04T09:18:09.394Z,274.20
2018-07-04T09:19:09.455Z,278.90
2018-07-04T09:20:09.540Z,279.20
2018-07-04T09:21:09.516Z,268.60
2018-07-04T09:22:09.578Z,257.00
2018-07-04T09:23:09.805Z,289.20
2018-07-04T09:24:09.661Z,274.20
2018-07-04T09:25:09.728Z,275.00
2018-07-04T09:26:09.751Z,278.80
2018-07-04T09:27:09.811Z,296.00
2018-07-04T09:28:09.824Z,317.10
2018-07-04T09:29:09.878Z,285.30
2018-07-04T09:30:09.932Z,277.90
2018-07-04T09:31:09.957Z,287.70
2018-07-04T09:32:10.008Z,292.60
2018-07-04T09:33:10.047Z,282.00
2018-07-04T09:34:10.079Z,290.90
2018-07-04T09:35:10.342Z,269.40
2018-07-04T09:36:10.178Z,286.00
2018-07-04T09:37:10.214Z,282.80
2018-07-04T09:38:10.294Z,313.30
2018-07-04T09:39:10.321Z,289.90
2018-07-04T09:40:10.331Z,284.80
2018-07-04T09:41:10.395Z,315.90
2018-07-04T09:42:10.459Z,290.70
2018-07-04T09:43:10.472Z,275.40
2018-07-04T09:44:10.550Z,291.40
2018-07-04T09:45:10.579Z,290.20
2018-07-04T09:46:10.605Z,365.80
2018-07-04T09:47:10.860Z,324.40
2018-07-04T09:48:10.702Z,318.60
2018-07-04T09:49:10.738Z,361.20
2018-07-04T09:50:10.806Z,300.50
2018-07-04T09:51:10.850Z,296.30
2018-07-04T09:52:10.871Z,273.90
2018-07-04T09:53:10.909Z,250.50
2018-07-04T09:54:10.971Z,289.30
2018-07-04T09:55:11.035Z,263.50
2018-07-04T09:56:11.066Z,287.20
2018-07-04T09:57:11.137Z,279.30
2018-07-04T09:58:11.124Z,258.10
2018-07-04T09:59:11.167Z,255.40
2018-07-04T10:00:11.210Z,282.60
2018-07-04T10:01:11.243Z,285.90
2018-07-04T10:02:11.295Z,280.00
2018-07-04T10:03:11.322Z,263.10
2018-07-04T10:04:11.392Z,282.70
2018-07-04T10:05:11.430Z,275.70
2018-07-04T10:06:11.477Z,294.60
2018-07-04T10:07:11.523Z,294.30
2018-07-04T10:08:11.566Z,292.40
2018-07-04T10:09:11.789Z,307.00
2018-07-04T10:10:11.646Z,319.90
2018-07-04T10:11:11.672Z,301.10
2018-07-04T10:12:11.716Z,294.20
2018-07-04T10:13:11.786Z,311.80
2018-07-04T10:14:11.796Z,316.20
2018-07-04T10:15:11.860Z,322.30
2018-07-04T10:16:11.906Z,310.90
2018-07-04T10:17:11.946Z,321.50
2018-07-04T10:18:11.972Z,312.70
2018-07-04T10:19:12.015Z,308.60
2018-07-04T10:20:12.308Z,312.60
2018-07-04T10:21:12.104Z,406.30
2018-07-04T10:22:12.178Z,325.50
2018-07-04T10:23:12.200Z,315.00
2018-07-04T10:24:12.222Z,315.40
2018-07-04T10:25:12.315Z,311.90
2018-07-04T10:26:12.332Z,293.80
2018-07-04T10:27:12.391Z,299.60
2018-07-04T10:28:12.412Z,286.00
2018-07-04T10:29:12.470Z,275.00
2018-07-04T10:30:12.512Z,245.60
2018-07-04T10:31:12.555Z,236.30
2018-07-04T10:32:12.597Z,192.70
2018-07-04T10:33:12.628Z,209.10
2018-07-04T10:34:12.665Z,171.80
2018-07-04T10:35:12.722Z,176.60
2018-07-04T10:36:12.755Z,158.70
2018-07-04T10:37:12.873Z,167.30
2018-07-04T10:38:12.854Z,158.00
2018-07-04T10:39:12.909Z,164.20
2018-07-04T10:40:12.934Z,200.10
2018-07-04T10:41:12.991Z,153.10
2018-07-04T10:42:13.017Z,164.20
2018-07-04T10:43:13.052Z,178.30
2018-07-04T10:44:13.130Z,165.20
2018-07-04T10:45:13.175Z,153.50
2018-07-04T10:46:13.203Z,156.20
2018-07-04T10:47:13.288Z,133.10
2018-07-04T10:48:13.311Z,135.00
2018-07-04T10:49:13.348Z,132.80
2018-07-04T10:50:13.424Z,127.20
2018-07-04T10:51:13.428Z,189.80
2018-07-04T10:52:13.472Z,116.50
2018-07-04T10:53:13.491Z,122.40
2018-07-04T10:54:13.574Z,113.10
2018-07-04T10:55:13.599Z,112.50
2018-07-04T10:56:13.632Z,121.00
2018-07-04T10:57:13.686Z,112.20
2018-07-04T10:58:13.730Z,99.40
2018-07-04T10:59:13.784Z,104.10
2018-07-04T11:00:13.824Z,106.10
2018-07-04T11:01:13.855Z,105.40
2018-07-04T11:02:13.960Z,112.50
2018-07-04T11:03:13.923Z,108.70
2018-07-04T11:04:14.014Z,103.50
2018-07-04T11:05:14.036Z,99.30
2018-07-04T11:06:14.062Z,103.60
2018-07-04T11:07:14.127Z,100.60
2018-07-04T11:08:14.190Z,92.90
2018-07-04T11:09:14.221Z,100.40
2018-07-04T11:10:14.264Z,100.90
2018-07-04T11:11:14.434Z,105.30
2018-07-04T11:12:14.344Z,96.70
2018-07-04T11:13:14.429Z,92.40
2018-07-04T11:14:14.419Z,104.60
2018-07-04T11:15:14.458Z,111.90
2018-07-04T11:16:14.516Z,98.90
2018-07-04T11:17:14.579Z,95.20
2018-07-04T11:18:14.619Z,105.40
2018-07-04T11:19:14.640Z,101.70
2018-07-04T11:20:14.684Z,106.10
2018-07-04T11:21:14.769Z,111.30
2018-07-04T11:22:14.801Z,98.80
2018-07-04T11:23:14.822Z,104.90
2018-07-04T11:24:14.884Z,102.40
2018-07-04T11:25:14.953Z,104.90
2018-07-04T11:26:14.958Z,105.90
2018-07-04T11:27:15.009Z,99.70
2018-07-04T11:28:15.096Z,147.20
2018-07-04T11:29:15.090Z,98.20
2018-07-04T11:30:15.141Z,104.90
2018-07-04T11:31:15.211Z,103.20
2018-07-04T11:32:15.233Z,87.70
2018-07-04T11:33:15.245Z,166.30
2018-07-04T11:34:15.328Z,117.00
2018-07-04T11:35:15.377Z,108.20
2018-07-04T11:36:15.455Z,132.40
2018-07-04T11:37:15.430Z,115.90
2018-07-04T11:38:15.528Z,107.20
2018-07-04T11:39:15.533Z,100.50
2018-07-04T11:40:15.604Z,103.30
2018-07-04T11:41:15.641Z,92.10
2018-07-04T11:42:15.669Z,107.20
2018-07-04T11:43:15.694Z,101.00
2018-07-04T11:44:15.751Z,117.50
2018-07-04T11:45:15.775Z,131.50
2018-07-04T11:46:15.842Z,168.10
2018-07-04T11:47:15.864Z,360.70
2018-07-04T11:48:15.915Z,142.20
2018-07-04T11:49:15.998Z,192.50
2018-07-04T11:50:16.000Z,140.50
2018-07-04T11:51:16.067Z,145.70
2018-07-04T11:52:16.111Z,129.00
2018-07-04T11:53:16.193Z,100.40
2018-07-04T11:54:16.215Z,83.90
2018-07-04T11:55:16.329Z,252.70
2018-07-04T11:56:16.267Z,124.90
2018-07-04T11:57:16.319Z,194.00
2018-07-04T11:58:16.393Z,83.50
2018-07-04T11:59:16.433Z,96.40
2018-07-04T12:00:16.483Z,86.90
2018-07-04T12:01:16.515Z,90.40
2018-07-04T12:02:16.530Z,148.40
2018-07-04T12:03:16.592Z,199.10
2018-07-04T12:04:16.657Z,98.70
2018-07-04T12:05:16.713Z,118.60
2018-07-04T12:06:16.738Z,93.40
2018-07-04T12:07:16.830Z,98.60
2018-07-04T12:08:16.838Z,102.60
2018-07-04T12:09:16.860Z,97.90
2018-07-04T12:10:16.968Z,101.60
2018-07-04T12:11:16.959Z,106.90
2018-07-04T12:12:17.011Z,109.80
2018-07-04T12:13:17.067Z,107.30
2018-07-04T12:14:17.104Z,111.40
2018-07-04T12:15:17.129Z,223.70
2018-07-04T12:16:17.198Z,115.00
2018-07-04T12:17:17.248Z,109.90
2018-07-04T12:18:17.299Z,118.90
2018-07-04T12:19:17.341Z,124.00
2018-07-04T12:20:17.369Z,120.30
2018-07-04T12:21:17.412Z,125.00
2018-07-04T12:22:17.565Z,124.30
2018-07-04T12:23:17.514Z,113.50
2018-07-04T12:24:17.591Z,131.50
2018-07-04T12:25:17.628Z,114.80
2018-07-04T12:26:17.686Z,122.30
2018-07-04T12:27:17.716Z,126.00
2018-07-04T12:28:17.753Z,151.60
2018-07-04T12:29:17.788Z,101.90
2018-07-04T12:30:17.863Z,213.80